Latest Weather Observations for Lake Macquarie - Cooranbong

IDN60801

Issued at 8:32 pm EST Thursday 26 May 2016 (issued every 30 minutes, with the page automatically refreshed every 10 minutes)

About weather observations | Map of weather stations | Latest weather observations for NSW | Other Formats
Station Details ID: 061412 Name: LAKE MACQUARIE AWS Lat: -33.09 Lon: 151.46 Height: 6.0 m
Data from the previous 72 hours. | See also: Recent months at Lake Macquarie - Cooranbong
Date/Time
EST
Temp
°C
App
Temp
°C
Dew
Point
Rel
Hum
%
Delta-T
°C
Wind Press
QNH
hPa
Press
MSL
hPa
Rain
since 9 am
mm
Dir
 
Spd
km/h
Gust
km/h
Spd
kts
Gust
kts
26/08:30pm 14.3 13.4 9.1 71 2.7 NNW 4 7 2 4 1003.6 1003.6 0.0
26/08:00pm 14.5 13.2 9.3 71 2.7 NNW 6 9 3 5 1003.1 1003.1 0.0
26/07:30pm 13.8 12.8 8.8 72 2.5 N 4 6 2 3 1003.2 1003.2 0.0
26/07:00pm 14.8 13.8 8.7 67 3.1 NNE 4 13 2 7 1002.9 1002.9 0.0
26/06:30pm 15.7 14.4 9.1 65 3.4 N 6 11 3 6 1002.8 1002.8 0.0
26/06:00pm 16.6 15.2 8.8 60 4.0 N 6 7 3 4 1002.4 1002.4 0.0
26/05:30pm 17.3 15.3 8.7 57 4.4 NNW 9 20 5 11 1002.2 1002.2 0.0
26/05:00pm 17.8 15.0 8.4 54 4.9 NNW 13 24 7 13 1001.8 1001.8 0.0
26/04:30pm 18.4 15.5 8.1 51 5.3 N 13 24 7 13 1001.8 1001.8 0.0
26/04:00pm 18.9 16.6 7.4 47 5.9 NNW 9 19 5 10 1001.9 1001.9 0.0
26/03:30pm 19.4 16.7 7.2 45 6.2 NNW 11 24 6 13 1002.1 1002.1 0.0
26/03:00pm 19.0 16.4 6.2 43 6.4 N 9 20 5 11 1002.3 1002.3 0.0
26/02:30pm 19.1 16.3 6.9 45 6.1 NNW 11 22 6 12 1002.4 1002.4 0.0
26/02:00pm 18.2 14.5 6.4 46 5.9 N 15 24 8 13 1002.7 1002.7 0.0
26/01:30pm 18.9 15.7 6.7 45 6.1 NNW 13 28 7 15 1003.4 1003.4 0.0
26/01:00pm 17.9 14.2 6.4 47 5.7 NW 15 28 8 15 1003.4 1003.4 0.0
26/12:30pm 17.4 14.7 7.5 52 5.0 NNW 11 20 6 11 1004.2 1004.2 0.0
26/12:00pm 15.5 12.1 7.8 60 3.9 N 15 35 8 19 1003.9 1003.9 0.0
26/11:54am 15.6 12.1 8.8 64 3.5 N 17 30 9 16 1004.4 1004.4 0.0
26/11:30am 15.2 12.7 8.0 62 3.6 NNW 11 24 6 13 1006.4 1006.4 0.0
26/11:00am 15.4 13.2 7.9 61 3.8 NNW 9 24 5 13 1007.5 1007.5 0.0
26/10:30am 15.5 13.5 7.3 58 4.1 N 7 13 4 7 1007.6 1007.6 0.0
26/10:00am 13.7 13.2 10.7 82 1.6 NNW 4 15 2 8 1007.5 1007.5 0.0
26/09:30am 12.9 12.7 10.4 85 1.3 N 2 6 1 3 1007.8 1007.8 0.0
26/09:00am 11.4 11.5 10.1 92 0.7 CALM 0 0 0 0 1008.3 1008.3 1.2
26/08:30am 11.1 11.2 10.0 93 0.6 CALM 0 0 0 0 1009.4 1009.4 1.2
26/08:00am 10.8 10.8 9.7 93 0.6 CALM 0 0 0 0 1009.5 1009.5 1.2
26/07:30am 10.4 10.2 9.2 92 0.6 CALM 0 0 0 0 1009.7 1009.7 1.2
26/07:00am 10.7 10.2 9.3 91 0.7 S 2 6 1 3 1009.9 1009.9 1.2
26/06:30am 10.7 10.2 9.3 91 0.7 ESE 2 6 1 3 1009.9 1009.9 1.0
26/06:00am 11.0 10.2 9.8 92 0.6 W 4 6 2 3 1010.9 1010.9 1.0
26/05:30am 10.9 10.8 9.5 91 0.7 CALM 0 0 0 0 1010.9 1010.9 1.0
26/05:00am 11.4 11.0 9.7 89 0.9 ESE 2 6 1 3 1010.7 1010.7 0.8
26/04:30am 11.6 11.0 9.0 84 1.3 ENE 2 6 1 3 1011.2 1011.2 0.4
26/04:00am 11.0 10.9 9.3 89 0.9 CALM 0 0 0 0 1011.2 1011.2 0.0
26/03:30am 10.7 10.5 9.0 89 0.8 CALM 0 0 0 0 1011.0 1011.0 0.0
26/03:00am 10.0 9.6 8.1 88 0.9 CALM 0 0 0 0 1010.9 1010.9 0.0
26/02:30am 9.6 9.1 7.7 88 0.9 CALM 0 0 0 0 1011.6 1011.6 0.0
26/02:00am 9.3 8.8 7.7 90 0.8 CALM 0 2 0 1 1011.7 1011.7 0.0
26/01:30am 8.8 8.2 7.3 90 0.7 CALM 0 0 0 0 1011.7 1011.7 0.0
26/01:00am 8.5 7.8 7.1 91 0.7 CALM 0 0 0 0 1011.8 1011.8 0.0
26/12:30am 8.2 7.5 6.8 91 0.6 CALM 0 2 0 1 1012.3 1012.3 0.0
26/12:00am 8.0 7.3 6.8 92 0.6 CALM 0 0 0 0 1012.9 1012.9 0.0
 
Date/Time
EST
Temp
°C
App
Temp
°C
Dew
Point
Rel
Hum
%
Delta-T
°C
Wind Press
QNH
hPa
Press
MSL
hPa
Rain
since 9 am
mm
Dir
 
Spd
km/h
Gust
km/h
Spd
kts
Gust
kts
25/11:30pm 7.7 6.9 6.3 91 0.6 CALM 0 0 0 0 1013.6 1013.6 0.0
25/11:00pm 7.5 6.6 6.1 91 0.6 CALM 0 0 0 0 1013.5 1013.5 0.0
25/10:30pm 7.5 6.5 5.8 89 0.8 CALM 0 0 0 0 1013.7 1013.7 0.0
25/10:00pm 8.6 7.8 6.7 88 0.9 CALM 0 0 0 0 1013.7 1013.7 0.0
25/09:30pm 8.8 8.0 6.6 86 1.0 CALM 0 0 0 0 1014.2 1014.2 0.0
25/09:00pm 9.4 8.7 7.0 85 1.1 CALM 0 0 0 0 1014.3 1014.3 0.0
25/08:30pm 9.6 8.9 7.0 84 1.2 CALM 0 0 0 0 1014.3 1014.3 0.0
25/08:00pm 9.8 9.1 7.1 83 1.3 CALM 0 0 0 0 1014.2 1014.2 0.0
25/07:30pm 10.0 9.3 6.9 81 1.5 CALM 0 0 0 0 1014.2 1014.2 0.0
25/07:00pm 10.1 9.3 6.4 78 1.7 CALM 0 0 0 0 1014.3 1014.3 0.0
25/06:30pm 11.2 10.5 7.1 76 2.0 CALM 0 0 0 0 1014.0 1014.0 0.0
25/06:00pm 12.0 11.2 6.7 70 2.5 CALM 0 0 0 0 1014.0 1014.0 0.0
25/05:30pm 13.4 12.5 6.0 61 3.5 CALM 0 0 0 0 1013.8 1013.8 0.0
25/05:00pm 15.4 14.5 5.9 53 4.6 CALM 0 2 0 1 1013.6 1013.6 0.0
25/04:30pm 17.1 14.7 5.4 46 5.6 E 7 11 4 6 1013.5 1013.5 0.0
25/04:00pm 18.2 15.3 4.7 41 6.5 E 9 13 5 7 1013.5 1013.5 0.0
25/03:30pm 19.9 16.9 2.3 31 8.1 E 7 13 4 7 1013.6 1013.6 0.0
25/03:00pm 20.3 17.2 1.2 28 8.7 E 7 13 4 7 1013.6 1013.6 0.0
25/02:30pm 21.2 17.9 -0.1 24 9.5 E 7 13 4 7 1013.6 1013.6 0.0
25/02:00pm 21.1 17.7 -2.0 21 9.9 NNE 6 13 3 7 1013.9 1013.9 0.0
25/01:30pm 21.7 18.7 -5.2 16 10.9 NNW 2 6 1 3 1014.4 1014.4 0.0
25/01:00pm 21.3 17.5 -5.5 16 10.7 NW 6 9 3 5 1014.7 1014.7 0.0
25/12:30pm 21.4 18.6 -3.1 19 10.3 E 2 6 1 3 1015.4 1015.4 0.0
25/12:00pm 20.1 16.5 -3.5 20 9.7 SE 6 9 3 5 1015.6 1015.6 0.0
25/11:30am 19.7 16.0 -4.5 19 9.7 W 6 11 3 6 1016.8 1016.8 0.0
25/11:00am 19.8 17.1 0.3 27 8.6 NW 4 9 2 5 1017.4 1017.4 0.0
25/10:30am 18.8 15.8 1.8 32 7.7 N 7 13 4 7 1017.8 1017.8 0.0
25/10:00am 18.0 15.6 2.3 35 7.1 NW 4 7 2 4 1018.2 1018.2 0.0
25/09:30am 16.3 13.7 3.4 42 5.9 NW 6 11 3 6 1018.3 1018.3 0.0
25/09:00am 13.6 13.2 8.4 71 2.6 CALM 0 0 0 0 1018.5 1018.5 0.0
25/08:59am 13.2 12.7 7.9 70 2.6 CALM 0 0 0 0 1018.5 1018.5 0.0
25/08:30am 8.1 7.2 6.2 88 0.9 CALM 0 0 0 0 1018.6 1018.6 0.0
25/08:00am 5.2 4.0 4.5 95 0.3 CALM 0 0 0 0 1018.3 1018.3 0.0
25/07:30am 3.4 1.8 2.5 94 0.4 CALM 0 0 0 0 1018.1 1018.1 0.0
25/07:00am 2.9 1.2 2.0 94 0.4 CALM 0 0 0 0 1018.0 1018.0 0.0
25/06:30am 2.8 1.1 1.8 93 0.4 CALM 0 0 0 0 1017.7 1017.7 0.0
25/06:00am 3.2 1.6 2.2 93 0.4 CALM 0 0 0 0 1017.3 1017.3 0.0
25/05:30am 3.5 1.9 2.3 92 0.5 CALM 0 0 0 0 1017.0 1017.0 0.0
25/05:00am 4.0 2.4 2.7 91 0.5 CALM 0 0 0 0 1017.1 1017.1 0.0
25/04:30am 4.4 2.9 2.9 90 0.6 CALM 0 0 0 0 1017.0 1017.0 0.0
25/04:00am 4.8 3.3 3.0 88 0.7 CALM 0 0 0 0 1017.0 1017.0 0.0
25/03:30am 5.3 3.9 3.3 87 0.8 CALM 0 0 0 0 1016.8 1016.8 0.0
25/03:00am 5.7 4.3 3.5 86 0.9 CALM 0 0 0 0 1017.1 1017.1 0.0
25/02:30am 6.0 4.6 3.3 83 1.1 CALM 0 0 0 0 1017.3 1017.3 0.0
25/02:00am 6.6 5.3 3.9 83 1.1 CALM 0 0 0 0 1017.2 1017.2 0.0
25/01:30am 6.3 4.7 2.4 76 1.6 CALM 0 2 0 1 1017.3 1017.3 0.0
25/01:00am 7.4 5.9 3.1 74 1.8 CALM 0 0 0 0 1017.4 1017.4 0.0
25/12:30am 8.3 6.8 3.2 70 2.2 CALM 0 0 0 0 1017.5 1017.5 0.0
25/12:00am 8.8 7.3 3.2 68 2.4 CALM 0 0 0 0 1017.6 1017.6 0.0
 
Date/Time
EST
Temp
°C
App
Temp
°C
Dew
Point
Rel
Hum
%
Delta-T
°C
Wind Press
QNH
hPa
Press
MSL
hPa
Rain
since 9 am
mm
Dir
 
Spd
km/h
Gust
km/h
Spd
kts
Gust
kts
24/11:30pm 9.7 7.8 3.0 63 2.9 NW 2 4 1 2 1017.8 1017.8 0.0
24/11:00pm 10.0 8.0 2.1 58 3.3 NNW 2 6 1 3 1017.8 1017.8 0.0
24/10:30pm 13.4 10.8 1.1 43 5.2 WNW 4 9 2 5 1017.8 1017.8 0.0
24/10:00pm 14.2 11.3 1.2 41 5.6 WNW 6 17 3 9 1018.0 1018.0 0.0
24/09:30pm 15.5 12.2 0.1 35 6.5 W 7 17 4 9 1017.9 1017.9 0.0
24/09:00pm 15.8 11.6 -0.8 32 6.9 W 11 20 6 11 1017.5 1017.5 0.0
24/08:30pm 14.9 11.6 0.0 36 6.3 WNW 7 15 4 8 1017.0 1017.0 0.0
24/08:28pm 15.0 11.9 0.4 37 6.2 WNW 6 15 3 8 1016.9 1016.9 0.0
24/08:00pm 9.8 7.2 0.9 54 3.6 N 4 6 2 3 1016.7 1016.7 0.0
24/07:30pm 10.6 8.3 2.9 59 3.3 NNW 4 7 2 4 1016.3 1016.3 0.0
24/07:00pm 9.9 7.9 2.5 60 3.1 WNW 2 6 1 3 1016.1 1016.1 0.0
24/06:30pm 11.8 10.3 3.1 55 3.8 CALM 0 0 0 0 1016.0 1016.0 0.0
24/06:00pm 12.9 11.1 1.0 44 5.0 CALM 0 0 0 0 1015.7 1015.7 0.0
24/05:30pm 15.4 12.5 -0.8 33 6.7 W 4 6 2 3 1015.3 1015.3 0.0
24/05:00pm 18.3 14.8 -3.2 23 8.7 WNW 6 11 3 6 1014.7 1014.7 0.0
24/04:30pm 20.2 16.4 -4.1 19 9.9 WNW 7 11 4 6 1014.5 1014.5 0.0
24/04:00pm 21.8 17.1 -5.1 16 10.9 W 11 20 6 11 1014.3 1014.3 0.0
24/03:30pm 22.2 17.4 -5.6 15 11.2 W 11 20 6 11 1014.2 1014.2 0.0
24/03:00pm 22.5 17.8 -5.4 15 11.3 W 11 19 6 10 1014.0 1014.0 0.0
24/02:30pm 23.1 18.6 -6.8 13 11.9 W 9 20 5 11 1013.7 1013.7 0.0
24/02:00pm 22.9 18.1 -6.0 14 11.6 WSW 11 17 6 9 1013.6 1013.6 0.0
24/01:30pm 22.4 19.1 -1.0 21 10.3 W 6 13 3 7 1014.0 1014.0 0.0
24/01:00pm 21.8 18.2 0.4 24 9.7 NW 9 15 5 8 1014.5 1014.5 0.0
24/12:30pm 20.8 17.0 -0.5 24 9.4 WNW 9 19 5 10 1015.2 1015.2 0.0
24/12:00pm 20.4 17.4 2.3 30 8.4 NW 7 11 4 6 1015.9 1015.9 0.0
24/11:30am 19.3 16.5 1.8 31 8.0 NW 6 11 3 6 1016.6 1016.6 0.0
24/11:00am 18.4 14.9 1.0 31 7.7 NW 9 19 5 10 1017.4 1017.4 0.0
24/10:30am 17.7 13.9 1.7 34 7.2 NW 11 20 6 11 1018.2 1018.2 0.0
24/10:00am 17.1 13.3 1.5 35 6.9 NW 11 22 6 12 1018.5 1018.5 0.0
24/09:30am 16.3 12.6 2.3 39 6.3 NW 11 20 6 11 1018.7 1018.7 0.0
24/09:00am 15.3 12.3 1.8 40 5.9 NNW 7 17 4 9 1019.0 1019.0 0.0
24/08:30am 14.8 11.5 2.7 44 5.4 NW 9 17 5 9 1019.0 1019.0 0.0
24/08:00am 13.9 10.6 2.5 46 5.0 WNW 9 17 5 9 1018.9 1018.9 0.0
24/07:30am 13.1 9.5 2.9 50 4.5 WNW 11 20 6 11 1018.6 1018.6 0.0
24/07:00am 10.6 8.1 3.6 62 3.1 WNW 6 11 3 6 1018.6 1018.6 0.0
24/06:30am 7.8 5.9 2.7 70 2.1 NW 2 6 1 3 1018.5 1018.5 0.0
24/06:00am 8.8 6.4 2.2 63 2.7 NW 4 7 2 4 1018.4 1018.4 0.0
24/05:30am 9.8 7.4 1.9 58 3.3 WSW 4 11 2 6 1018.6 1018.6 0.0
24/05:00am 10.2 7.4 2.3 58 3.3 WNW 6 9 3 5 1018.6 1018.6 0.0
24/04:30am 9.9 8.1 1.5 56 3.5 CALM 0 6 0 3 1019.0 1019.0 0.0
24/04:00am 11.1 8.4 0.5 48 4.3 N 4 7 2 4 1018.9 1018.9 0.0
24/03:30am 11.9 8.8 0.1 44 4.8 NW 6 7 3 4 1018.8 1018.8 0.0
24/03:00am 11.5 9.1 -0.6 43 4.9 E 2 4 1 2 1018.9 1018.9 0.0
24/02:30am 14.3 10.0 -1.3 34 6.4 WNW 11 20 6 11 1018.4 1018.4 0.0
24/02:00am 14.7 10.4 -1.4 33 6.6 WNW 11 22 6 12 1018.1 1018.1 0.0
24/01:30am 14.1 10.6 -1.1 35 6.2 WNW 7 13 4 7 1018.2 1018.2 0.0
24/01:00am 14.9 11.0 -1.2 33 6.6 WNW 9 19 5 10 1018.2 1018.2 0.0
24/12:30am 14.9 11.3 -2.1 31 6.8 W 7 15 4 8 1018.2 1018.2 0.0
24/12:00am 15.3 11.3 -2.2 30 7.0 W 9 19 5 10 1018.2 1018.2 0.0
 
Date/Time
EST
Temp
°C
App
Temp
°C
Dew
Point
Rel
Hum
%
Delta-T
°C
Wind Press
QNH
hPa
Press
MSL
hPa
Rain
since 9 am
mm
Dir
 
Spd
km/h
Gust
km/h
Spd
kts
Gust
kts
23/11:30pm 15.8 11.4 -2.2 29 7.3 WNW 11 19 6 10 1018.2 1018.2 0.0
23/11:00pm 15.5 11.9 -2.4 29 7.2 W 7 19 4 10 1018.3 1018.3 0.0
23/10:30pm 16.3 11.9 -2.2 28 7.5 W 11 19 6 10 1018.0 1018.0 0.0
23/10:00pm 15.9 12.3 -2.1 29 7.3 WNW 7 19 4 10 1017.9 1017.9 0.0
23/09:30pm 17.0 12.6 -2.6 26 8.0 W 11 24 6 13 1017.7 1017.7 0.0
23/09:00pm 17.4 12.2 -2.8 25 8.2 W 15 24 8 13 1017.6 1017.6 0.0

Other Formats:

Comma delimited format used in spreadsheet applications
http://www.bom.gov.au/fwo/IDN60801/IDN60801.95767.axf

JavaScript Object Notation format (JSON) in row-major order
http://www.bom.gov.au/fwo/IDN60801/IDN60801.95767.json